Plattenville, Louisiana
Current Conditions -  °F | °C
As of 10:15 AM on Tuesday 21 Oct 2014 (Local Time) from KL38 Reporting Station
Clear Clear  
Wind Chill: 71°   Ceiling: Unl
Heat Index: 71°   Visibility: 10mi
Dew Point: 55°   Wind: 6mph
Humidity: 58%   Direction: 50°NE
Pressure: 30.07"   Gusts: NA
Location:  29.99°N, 91.02°W
Report Text: KL38 211515Z AUTO 05005KT 10SM CLR 22/13 A3007 RMK AO2 T02160129
Loading
Personal Weather Stations






























Interactive Weather Map
Tropical Storm Tracking
New forecast layout! Learn more

10-Day Weather Forecast

Advertisements
Track Severe Weather on mobile